Time;durP1;ratioP1;P1;durP2;ratioP2;P2;SDS_P1;SDS_P2;PMS_P1;PMS_P2;Temp;Humidity;BMP_temperature;BMP_pressure;BME280_temperature;BME280_humidity;BME280_pressure;Samples;Min_cycle;Max_cycle;Signal;HPM_P1;HPM_P2
2024/04/04 00:02:26;;;;;;;6.65;1.58;;;10.10;99.90;;;;;;5019539;28;20049;-80
2024/04/04 00:05:13;;;;;;;3.40;1.55;;;10.20;99.90;;;;;;5016865;28;20042;-82
2024/04/04 00:08:00;;;;;;;4.80;1.90;;;10.20;99.90;;;;;;5018328;28;20044;-82
2024/04/04 00:10:46;;;;;;;6.03;1.52;;;10.20;99.90;;;;;;5020182;28;20154;-83
2024/04/04 00:13:34;;;;;;;4.63;1.52;;;10.30;94.60;;;;;;5005582;28;20037;-81
2024/04/04 00:16:20;;;;;;;8.80;1.98;;;10.20;18.30;;;;;;5017767;28;20037;-82
2024/04/04 00:19:09;;;;;;;6.97;2.10;;;10.20;1.00;;;;;;5025085;28;20063;-82
2024/04/04 00:21:57;;;;;;;8.45;1.70;;;10.20;1.00;;;;;;5038510;28;20030;-77
2024/04/04 00:24:45;;;;;;;4.63;1.40;;;10.20;1.00;;;;;;5033261;28;20030;-78
2024/04/04 00:27:34;;;;;;;7.75;1.73;;;10.10;1.00;;;;;;5033587;28;20040;-81
2024/04/04 00:30:21;;;;;;;6.53;1.27;;;10.10;1.00;;;;;;5039135;28;20045;-82
2024/04/04 00:33:07;;;;;;;6.40;1.63;;;10.00;99.90;;;;;;5037233;28;20045;-82
2024/04/04 00:35:55;;;;;;;7.60;1.38;;;10.00;99.90;;;;;;5029102;28;20048;-81
2024/04/04 00:38:41;;;;;;;3.65;1.55;;;9.90;99.90;;;;;;5032772;28;20120;-85
2024/04/04 00:41:27;;;;;;;5.05;1.48;;;9.90;99.90;;;;;;5020731;28;20033;-84
2024/04/04 00:44:14;;;;;;;8.30;1.52;;;9.80;99.90;;;;;;5019333;28;20029;-80
2024/04/04 00:47:03;;;;;;;7.32;1.30;;;9.80;99.90;;;;;;5025460;28;20045;-81
2024/04/04 00:49:49;;;;;;;8.10;2.08;;;9.80;99.90;;;;;;5018071;28;20038;-81
2024/04/04 00:52:36;;;;;;;4.80;1.45;;;9.80;99.90;;;;;;5016629;28;20079;-81
2024/04/04 00:55:22;;;;;;;9.88;1.60;;;9.80;99.90;;;;;;5017741;28;20042;-81
2024/04/04 00:58:10;;;;;;;5.95;1.42;;;9.90;99.90;;;;;;5020358;28;20098;-83
2024/04/04 01:00:57;;;;;;;7.75;1.70;;;9.90;99.90;;;;;;5017340;28;20041;-83
2024/04/04 01:03:43;;;;;;;6.75;1.50;;;9.80;99.90;;;;;;5025837;28;20124;-81
2024/04/04 01:06:30;;;;;;;4.88;1.35;;;9.80;99.90;;;;;;5004626;28;20053;-82
2024/04/04 01:09:17;;;;;;;3.65;1.17;;;9.70;99.90;;;;;;5019717;28;20105;-83
2024/04/04 01:12:05;;;;;;;4.75;1.40;;;9.70;99.90;;;;;;5000033;28;20049;-83
2024/04/04 01:14:53;;;;;;;5.63;1.70;;;9.60;99.90;;;;;;5024813;28;20571;-81
2024/04/04 01:17:39;;;;;;;4.78;1.50;;;9.60;99.90;;;;;;5016164;28;20476;-81
2024/04/04 01:20:26;;;;;;;6.18;1.33;;;9.60;1.00;;;;;;5001284;28;20045;-82
2024/04/04 01:23:13;;;;;;;7.50;1.40;;;9.60;1.00;;;;;;5015751;28;20050;-82
2024/04/04 01:25:59;;;;;;;4.28;1.40;;;9.60;26.30;;;;;;4997095;28;20533;-81
2024/04/04 01:28:46;;;;;;;8.13;2.13;;;9.60;99.90;;;;;;5017708;28;20049;-78
2024/04/04 01:31:35;;;;;;;3.47;1.80;;;9.60;99.90;;;;;;5017972;28;20099;-81
2024/04/04 01:34:21;;;;;;;6.40;1.80;;;9.70;99.90;;;;;;5017782;28;20049;-82
2024/04/04 01:37:07;;;;;;;4.95;1.70;;;9.70;99.90;;;;;;5016778;28;20041;-78
2024/04/04 01:39:54;;;;;;;5.53;1.98;;;9.80;99.90;;;;;;5015963;28;20053;-82
2024/04/04 01:42:40;;;;;;;5.60;1.55;;;9.80;99.90;;;;;;5018333;28;20417;-78
2024/04/04 01:45:31;;;;;;;7.22;1.75;;;9.90;99.90;;;;;;5025972;28;20038;-83
2024/04/04 01:48:18;;;;;;;4.60;1.67;;;9.90;99.90;;;;;;5020393;28;20037;-82
2024/04/04 01:51:04;;;;;;;6.53;1.40;;;9.90;99.90;;;;;;5017729;28;20056;-82
2024/04/04 01:53:50;;;;;;;4.47;1.40;;;9.90;99.90;;;;;;5020123;28;20038;-81
2024/04/04 01:56:38;;;;;;;3.13;1.48;;;9.90;99.90;;;;;;5016305;28;20046;-83
2024/04/04 01:59:25;;;;;;;3.78;1.20;;;9.90;99.90;;;;;;5006790;28;20056;-81
2024/04/04 02:02:12;;;;;;;5.18;1.30;;;9.90;99.90;;;;;;5019182;28;20042;-81
2024/04/04 02:04:58;;;;;;;4.20;1.20;;;9.90;99.90;;;;;;4999952;28;20497;-79
2024/04/04 02:07:45;;;;;;;6.30;1.60;;;10.00;99.90;;;;;;5020379;28;20045;-82
2024/04/04 02:10:33;;;;;;;4.07;1.40;;;9.90;99.90;;;;;;5018632;28;20053;-83
2024/04/04 02:13:22;;;;;;;4.60;1.58;;;9.90;99.90;;;;;;5005024;28;20044;-82
2024/04/04 02:16:09;;;;;;;4.68;1.45;;;9.90;99.90;;;;;;5018935;28;20758;-83
2024/04/04 02:18:57;;;;;;;5.13;1.40;;;9.80;99.90;;;;;;5023543;28;20049;-81
2024/04/04 02:21:43;;;;;;;6.32;1.73;;;9.70;99.90;;;;;;5014660;28;20414;-82
2024/04/04 02:24:33;;;;;;;4.30;1.48;;;9.60;99.90;;;;;;5014606;28;20045;-82
2024/04/04 02:27:19;;;;;;;5.97;1.42;;;9.60;99.90;;;;;;5028913;28;20049;-82
2024/04/04 02:30:06;;;;;;;6.32;1.40;;;9.60;99.90;;;;;;5028061;28;20095;-81
2024/04/04 02:32:53;;;;;;;6.28;1.55;;;9.60;99.90;;;;;;5012869;28;20038;-81
2024/04/04 02:35:50;;;;;;;6.03;1.60;;;9.50;99.90;;;;;;5004856;28;20113;-83
2024/04/04 02:38:36;;;;;;;4.30;1.40;;;9.40;1.00;;;;;;5019311;28;20041;-80
2024/04/04 02:41:22;;;;;;;5.32;1.67;;;9.40;1.00;;;;;;5020225;28;20067;-82
2024/04/04 02:44:10;;;;;;;4.63;1.35;;;9.30;1.00;;;;;;5005285;28;20045;-82
2024/04/04 02:46:58;;;;;;;4.85;1.40;;;9.30;99.90;;;;;;5004888;28;20059;-80
2024/04/04 02:49:44;;;;;;;6.30;1.45;;;9.40;99.90;;;;;;5019619;28;20546;-82
2024/04/04 02:52:31;;;;;;;6.45;1.90;;;9.50;99.90;;;;;;5019158;28;20506;-82
2024/04/04 02:55:18;;;;;;;2.10;1.08;;;9.50;99.90;;;;;;5005839;28;20053;-77
2024/04/04 02:58:05;;;;;;;2.78;1.20;;;9.50;99.90;;;;;;5018421;28;20171;-82
2024/04/04 03:00:53;;;;;;;2.50;1.23;;;9.50;99.90;;;;;;5016162;28;20946;-82
2024/04/04 03:03:39;;;;;;;3.25;1.48;;;9.50;99.90;;;;;;5026353;28;20098;-80
2024/04/04 03:06:26;;;;;;;4.13;1.70;;;9.50;99.90;;;;;;5014064;28;20076;-82
2024/04/04 03:09:13;;;;;;;4.00;1.20;;;9.40;99.90;;;;;;5017408;28;20472;-82
2024/04/04 03:12:00;;;;;;;6.43;1.60;;;9.40;99.90;;;;;;5003557;28;20053;-82
2024/04/04 03:14:47;;;;;;;4.70;1.58;;;9.40;99.90;;;;;;5002787;28;20113;-82
2024/04/04 03:17:34;;;;;;;5.72;1.58;;;9.40;99.90;;;;;;5017736;28;20050;-83
2024/04/04 03:20:24;;;;;;;3.83;1.40;;;9.40;99.90;;;;;;5018182;28;20045;-83
2024/04/04 03:23:11;;;;;;;5.13;1.50;;;9.30;1.00;;;;;;5016893;28;20045;-82
2024/04/04 03:25:57;;;;;;;7.63;1.25;;;9.30;1.00;;;;;;5018595;28;20045;-81
2024/04/04 03:28:43;;;;;;;2.40;1.10;;;9.30;1.00;;;;;;5018947;28;20072;-81
2024/04/04 03:31:30;;;;;;;4.18;1.20;;;9.20;1.00;;;;;;5023822;28;20045;-84
2024/04/04 03:34:19;;;;;;;3.42;1.40;;;9.30;11.10;;;;;;5018761;28;20151;-81
2024/04/04 03:37:05;;;;;;;5.32;1.58;;;9.30;15.90;;;;;;5014216;28;20045;-82
2024/04/04 03:39:54;;;;;;;3.50;1.40;;;9.30;36.90;;;;;;5016160;28;20057;-78
2024/04/04 03:42:40;;;;;;;3.08;1.20;;;9.20;59.80;;;;;;5026817;28;20064;-80
2024/04/04 03:45:26;;;;;;;5.43;1.27;;;9.30;99.90;;;;;;5025147;28;20113;-81
2024/04/04 03:48:15;;;;;;;3.90;1.25;;;9.30;99.90;;;;;;5014840;28;20053;-79
2024/04/04 03:51:01;;;;;;;6.82;1.40;;;9.30;99.90;;;;;;5025698;28;20065;-82
2024/04/04 03:53:50;;;;;;;4.63;1.50;;;9.20;99.90;;;;;;4994975;28;20042;-81
2024/04/04 03:56:37;;;;;;;5.82;1.77;;;9.20;99.90;;;;;;5016064;28;20045;-81
2024/04/04 03:59:24;;;;;;;3.03;1.40;;;9.20;99.90;;;;;;5015839;28;20041;-83
2024/04/04 04:02:10;;;;;;;6.95;1.27;;;9.10;99.90;;;;;;5002067;28;20101;-82
2024/04/04 04:04:57;;;;;;;5.03;1.50;;;9.10;99.90;;;;;;5016270;28;20051;-81
2024/04/04 04:07:44;;;;;;;3.40;1.40;;;9.10;99.90;;;;;;5016084;28;20117;-82
2024/04/04 04:10:31;;;;;;;2.80;1.40;;;9.10;99.90;;;;;;5016096;28;20063;-82
2024/04/04 04:13:17;;;;;;;5.68;1.40;;;9.10;1.00;;;;;;5002328;28;20089;-78
2024/04/04 04:16:05;;;;;;;4.75;1.75;;;9.10;1.00;;;;;;5012121;28;20037;-77
2024/04/04 04:18:52;;;;;;;7.65;2.20;;;9.10;1.00;;;;;;5016440;28;21047;-83
2024/04/04 04:21:42;;;;;;;6.68;1.75;;;9.10;31.60;;;;;;5016582;28;20044;-81
2024/04/04 04:24:29;;;;;;;2.70;1.83;;;9.20;6.70;;;;;;5026888;28;20045;-81
2024/04/04 04:27:19;;;;;;;1.95;1.30;;;9.10;1.00;;;;;;5025880;28;20120;-84
2024/04/04 04:30:08;;;;;;;10.63;2.90;;;9.00;9.80;;;;;;5018329;28;20053;-80
2024/04/04 04:32:55;;;;;;;7.50;1.92;;;9.00;99.90;;;;;;5018207;28;20552;-82
2024/04/04 04:35:41;;;;;;;4.35;1.65;;;9.00;99.90;;;;;;5019066;28;20042;-82
2024/04/04 04:38:28;;;;;;;3.92;1.42;;;9.00;99.90;;;;;;5005157;28;20045;-80
2024/04/04 04:41:14;;;;;;;5.32;1.42;;;9.00;99.90;;;;;;5017010;28;20120;-79
2024/04/04 04:44:01;;;;;;;3.88;1.52;;;9.00;99.90;;;;;;5013045;28;20049;-81
2024/04/04 04:46:48;;;;;;;2.65;1.30;;;8.90;99.90;;;;;;5004356;28;20053;-80
2024/04/04 04:49:34;;;;;;;3.13;1.52;;;8.90;99.90;;;;;;5014769;28;20425;-83
2024/04/04 04:52:20;;;;;;;6.60;1.85;;;8.90;1.00;;;;;;5014993;28;20045;-80
2024/04/04 04:55:07;;;;;;;4.63;1.50;;;8.90;1.00;;;;;;5028345;28;20069;-79
2024/04/04 04:57:53;;;;;;;2.92;1.70;;;9.00;1.00;;;;;;5006962;28;20510;-79
2024/04/04 05:00:41;;;;;;;5.95;1.80;;;9.00;1.00;;;;;;5006359;28;20120;-81
2024/04/04 05:03:30;;;;;;;7.65;2.10;;;9.00;1.00;;;;;;5012552;28;20046;-81
2024/04/04 05:06:18;;;;;;;4.38;1.83;;;9.00;1.00;;;;;;5014271;28;20060;-80
2024/04/04 05:09:04;;;;;;;9.07;1.50;;;9.00;1.00;;;;;;5024412;28;20539;-81
2024/04/04 05:11:51;;;;;;;4.47;1.98;;;9.00;1.00;;;;;;5014651;28;20115;-81
2024/04/04 05:14:39;;;;;;;3.60;1.58;;;9.00;6.40;;;;;;5015269;28;20055;-81
2024/04/04 05:17:25;;;;;;;5.13;2.15;;;9.10;42.90;;;;;;5016553;28;20044;-81
2024/04/04 05:20:13;;;;;;;6.68;1.75;;;9.10;40.10;;;;;;5015550;28;20045;-81
2024/04/04 05:23:00;;;;;;;5.65;1.60;;;9.10;22.10;;;;;;5013099;28;20068;-80
2024/04/04 05:25:47;;;;;;;4.57;1.52;;;9.10;1.00;;;;;;5001302;28;20041;-82
2024/04/04 05:28:36;;;;;;;9.85;1.80;;;9.20;1.00;;;;;;5014611;28;20045;-83
2024/04/04 05:31:24;;;;;;;3.58;1.30;;;9.20;1.00;;;;;;5015901;28;20050;-80
2024/04/04 05:34:12;;;;;;;4.82;1.60;;;9.10;99.90;;;;;;5017228;28;20052;-81
2024/04/04 05:36:58;;;;;;;4.07;1.48;;;9.10;99.90;;;;;;5021432;28;20091;-81
2024/04/04 05:39:49;;;;;;;3.30;1.80;;;9.10;99.90;;;;;;5016567;28;20041;-82
2024/04/04 05:42:36;;;;;;;4.53;1.73;;;9.10;99.90;;;;;;5017481;28;20041;-79
2024/04/04 05:45:24;;;;;;;5.75;1.45;;;9.10;99.90;;;;;;5024071;28;20050;-82
2024/04/04 05:48:11;;;;;;;3.95;1.52;;;9.20;99.90;;;;;;5019590;28;20045;-80
2024/04/04 05:51:04;;;;;;;4.80;1.83;;;9.20;99.90;;;;;;5003146;28;20056;-82
2024/04/04 05:53:50;;;;;;;8.73;1.90;;;9.20;99.90;;;;;;5024439;28;20101;-82
2024/04/04 05:56:36;;;;;;;6.28;1.60;;;9.30;99.90;;;;;;5016665;28;20610;-81
2024/04/04 05:59:25;;;;;;;9.07;2.15;;;9.30;40.50;;;;;;5015470;28;20046;-82
2024/04/04 06:02:13;;;;;;;7.10;1.88;;;9.30;1.00;;;;;;5016265;28;20041;-82
2024/04/04 06:05:01;;;;;;;4.22;1.35;;;9.30;1.00;;;;;;5014217;28;20045;-82
2024/04/04 06:07:47;;;;;;;10.82;3.53;;;9.30;99.90;;;;;;5014389;28;20055;-82
2024/04/04 06:10:35;;;;;;;8.85;1.80;;;9.30;99.90;;;;;;4999509;28;20053;-82
2024/04/04 06:13:22;;;;;;;4.10;1.60;;;9.40;99.90;;;;;;5014538;28;20042;-82
2024/04/04 06:16:09;;;;;;;11.45;2.05;;;9.50;99.90;;;;;;5019277;28;20045;-79
2024/04/04 06:18:57;;;;;;;7.38;2.03;;;9.80;70.00;;;;;;5017074;28;20073;-82
2024/04/04 06:21:47;;;;;;;8.40;2.22;;;10.20;1.00;;;;;;5025001;28;20097;-83
2024/04/04 06:24:34;;;;;;;10.32;2.40;;;10.70;93.50;;;;;;5013047;28;20132;-79
2024/04/04 06:27:20;;;;;;;8.70;1.90;;;11.10;99.90;;;;;;5022962;28;20045;-79
2024/04/04 06:30:10;;;;;;;10.13;2.20;;;11.30;99.90;;;;;;5019471;28;20056;-80
2024/04/04 06:32:59;;;;;;;8.43;2.30;;;11.30;1.00;;;;;;5000354;28;20053;-82
2024/04/04 06:35:46;;;;;;;10.60;2.67;;;11.20;99.90;;;;;;5015776;28;20060;-80
2024/04/04 06:38:32;;;;;;;13.43;2.25;;;11.20;1.00;;;;;;5013359;28;20049;-81
2024/04/04 06:41:21;;;;;;;10.30;2.08;;;11.30;1.00;;;;;;5014693;28;20046;-82
2024/04/04 06:44:08;;;;;;;13.65;2.47;;;11.50;99.90;;;;;;5015046;28;20746;-82
2024/04/04 06:46:54;;;;;;;12.55;2.40;;;11.80;99.90;;;;;;5016888;28;20072;-82
2024/04/04 06:49:41;;;;;;;9.02;2.40;;;11.90;27.10;;;;;;5011471;28;20110;-83
2024/04/04 06:52:27;;;;;;;10.80;2.63;;;12.10;1.00;;;;;;5016583;28;20080;-84
2024/04/04 06:55:15;;;;;;;12.35;2.70;;;12.30;1.00;;;;;;5016409;28;20045;-83
2024/04/04 06:58:03;;;;;;;10.43;3.20;;;12.50;99.90;;;;;;5026045;28;20113;-79
2024/04/04 07:00:59;;;;;;;9.32;2.25;;;12.60;99.90;;;;;;5017092;28;20057;-84
2024/04/04 07:03:51;;;;;;;9.90;2.35;;;12.60;99.90;;;;;;5011744;28;20511;-80
2024/04/04 07:06:38;;;;;;;;;;;12.80;99.90;;;;;;5011922;28;20049;-83
2024/04/04 07:09:25;;;;;;;11.30;2.97;;;12.90;99.90;;;;;;5011986;28;20004;-82
2024/04/04 07:12:13;;;;;;;9.48;1.95;;;13.20;61.20;;;;;;5010483;28;20056;-83
2024/04/04 07:15:00;;;;;;;9.98;2.55;;;13.30;1.00;;;;;;5019957;28;20038;-82
2024/04/04 07:17:52;;;;;;;8.23;1.63;;;13.20;1.00;;;;;;5014670;28;20099;-84
2024/04/04 07:20:39;;;;;;;6.97;1.95;;;13.20;1.00;;;;;;5015960;28;20053;-82
2024/04/04 07:23:29;;;;;;;9.48;2.22;;;12.90;1.00;;;;;;5017816;28;20702;-83
2024/04/04 07:26:16;;;;;;;12.65;2.60;;;12.80;1.00;;;;;;5016460;28;20083;-84
2024/04/04 07:29:04;;;;;;;12.50;2.30;;;12.70;1.00;;;;;;5015616;28;20054;-80
2024/04/04 07:31:50;;;;;;;10.30;1.83;;;12.70;1.00;;;;;;5018030;28;20049;-83
2024/04/04 07:34:37;;;;;;;16.23;2.20;;;12.60;1.00;;;;;;5004953;28;20266;-82
2024/04/04 07:37:24;;;;;;;6.65;1.60;;;12.50;1.00;;;;;;5019027;28;20048;-83
2024/04/04 07:40:13;;;;;;;11.68;2.33;;;12.30;1.00;;;;;;5018074;28;20526;-83
2024/04/04 07:43:02;;;;;;;8.93;1.80;;;12.20;1.00;;;;;;4999242;28;20041;-81
2024/04/04 07:45:49;;;;;;;9.38;2.20;;;12.10;1.00;;;;;;5008127;28;20052;-84
2024/04/04 07:48:36;;;;;;;10.88;2.20;;;11.90;1.00;;;;;;5027065;28;20053;-85
2024/04/04 07:51:23;;;;;;;12.48;2.63;;;11.70;88.80;;;;;;5026974;28;20045;-83
2024/04/04 07:54:10;;;;;;;11.57;1.95;;;11.50;99.90;;;;;;5004561;28;20049;-80
2024/04/04 07:57:00;;;;;;;11.43;2.25;;;11.40;99.90;;;;;;5026702;28;20562;-85
2024/04/04 07:59:47;;;;;;;10.00;2.28;;;11.40;99.90;;;;;;5017932;28;20051;-82
2024/04/04 08:02:34;;;;;;;9.80;2.00;;;11.40;99.90;;;;;;5019481;28;20132;-84
2024/04/04 08:05:22;;;;;;;11.27;1.80;;;11.30;99.90;;;;;;5004468;28;20049;-83
2024/04/04 08:08:08;;;;;;;14.75;3.08;;;11.10;1.00;;;;;;5002948;28;20053;-82
2024/04/04 08:10:55;;;;;;;12.50;3.10;;;10.90;1.00;;;;;;5005774;28;20491;-82
2024/04/04 08:13:45;;;;;;;9.88;2.67;;;10.70;43.00;;;;;;5006797;28;20586;-83
2024/04/04 08:16:36;;;;;;;15.18;3.10;;;10.60;99.90;;;;;;5018510;28;20041;-86
2024/04/04 08:19:22;;;;;;;11.00;1.90;;;10.50;99.90;;;;;;5023257;28;20041;-84
2024/04/04 08:22:15;;;;;;;12.90;2.50;;;10.60;99.90;;;;;;5022487;28;20046;-84
2024/04/04 08:25:02;;;;;;;6.97;2.50;;;10.60;1.00;;;;;;5003628;28;20049;-84
2024/04/04 08:27:48;;;;;;;8.45;2.38;;;10.60;1.00;;;;;;5024166;28;20045;-83
2024/04/04 08:30:36;;;;;;;13.48;2.15;;;10.70;1.00;;;;;;5008419;28;20052;-83
2024/04/04 08:33:26;;;;;;;12.55;2.00;;;10.80;1.00;;;;;;5027890;28;20041;-85
2024/04/04 08:36:12;;;;;;;7.25;1.83;;;10.80;1.00;;;;;;5014702;28;20482;-80
2024/04/04 08:38:59;;;;;;;6.05;1.80;;;10.90;1.00;;;;;;5028650;28;20167;-84
2024/04/04 08:41:45;;;;;;;8.75;2.00;;;11.00;1.00;;;;;;5019162;28;20046;-84
2024/04/04 08:44:34;;;;;;;8.95;2.38;;;11.10;1.00;;;;;;5006101;28;20071;-84
2024/04/04 08:47:24;;;;;;;10.18;2.22;;;11.20;99.90;;;;;;5005551;28;20053;-83
2024/04/04 08:50:34;;;;;;;7.47;1.77;;;11.30;99.90;;;;;;5020719;28;20111;-83
2024/04/04 08:53:25;;;;;;;6.53;1.73;;;11.40;99.90;;;;;;5023012;28;20041;-85
2024/04/04 08:56:16;;;;;;;7.63;1.80;;;11.50;99.90;;;;;;5008878;28;20047;-80
2024/04/04 08:59:03;;;;;;;9.35;2.10;;;11.60;99.90;;;;;;5027440;28;20276;-82
2024/04/04 09:01:51;;;;;;;7.82;1.60;;;11.80;99.90;;;;;;5025524;28;20053;-83
2024/04/04 09:04:37;;;;;;;5.78;1.58;;;12.00;70.00;;;;;;5025128;28;20056;-85
2024/04/04 09:07:24;;;;;;;9.40;2.08;;;12.10;1.00;;;;;;5026780;28;20104;-81
2024/04/04 09:10:17;;;;;;;7.25;2.08;;;12.10;1.00;;;;;;5016486;28;20041;-80
2024/04/04 09:13:06;;;;;;;8.98;1.98;;;12.10;1.00;;;;;;5017296;28;20053;-83
2024/04/04 09:16:00;;;;;;;7.25;2.13;;;12.10;1.00;;;;;;5023238;28;20045;-82
2024/04/04 09:18:48;;;;;;;8.75;1.92;;;12.20;99.90;;;;;;5013439;28;20418;-83
2024/04/04 09:21:36;;;;;;;5.93;1.60;;;12.20;99.90;;;;;;5022365;28;20052;-79
2024/04/04 09:24:29;;;;;;;7.28;1.77;;;12.40;99.90;;;;;;5028276;28;20046;-83
2024/04/04 09:27:21;;;;;;;6.93;1.67;;;12.90;99.90;;;;;;5008196;28;20055;-83
2024/04/04 09:30:11;;;;;;;8.02;2.28;;;12.90;99.90;;;;;;5018056;28;20041;-80
2024/04/04 09:33:00;;;;;;;5.25;1.17;;;12.70;99.90;;;;;;5017505;28;20067;-85
2024/04/04 09:35:48;;;;;;;9.07;2.20;;;12.70;99.90;;;;;;5001577;28;20049;-82
2024/04/04 09:38:37;;;;;;;4.72;1.55;;;12.80;99.90;;;;;;5028316;28;20025;-81
2024/04/04 09:41:28;;;;;;;5.68;2.05;;;12.80;99.90;;;;;;5032109;28;20029;-83
2024/04/04 09:44:15;;;;;;;6.18;1.92;;;12.80;99.90;;;;;;5029180;28;20050;-83
2024/04/04 09:47:06;;;;;;;9.13;1.60;;;12.80;99.90;;;;;;5016592;28;20033;-82
2024/04/04 09:49:53;;;;;;;3.50;1.40;;;13.00;99.90;;;;;;5030019;28;20075;-84
2024/04/04 09:52:41;;;;;;;5.80;1.50;;;13.00;99.90;;;;;;5016712;28;20045;-83
2024/04/04 09:55:28;;;;;;;6.47;1.85;;;13.00;99.90;;;;;;5002060;28;20056;-81
2024/04/04 09:58:15;;;;;;;7.70;2.22;;;12.90;99.90;;;;;;5000516;28;20056;-83
2024/04/04 10:01:12;;;;;;;8.95;2.10;;;12.50;99.90;;;;;;5004520;28;20042;-82
2024/04/04 10:03:59;;;;;;;12.45;2.20;;;12.30;99.90;;;;;;5024815;28;20053;-81
2024/04/04 10:06:48;;;;;;;10.77;2.45;;;12.00;1.00;;;;;;5001317;28;20131;-82
2024/04/04 10:09:39;;;;;;;5.50;1.73;;;11.90;20.40;;;;;;5004587;28;20056;-79
2024/04/04 10:12:45;;;;;;;15.73;4.05;;;11.80;99.90;;;;;;5011280;28;20059;-84
2024/04/04 10:15:48;;;;;;;12.55;3.05;;;11.90;99.90;;;;;;5009646;28;20060;-85
2024/04/04 10:18:46;;;;;;;11.10;2.50;;;11.90;1.00;;;;;;5020520;28;20505;-85
2024/04/04 10:21:33;;;;;;;12.90;2.72;;;11.90;1.00;;;;;;5013285;28;20068;-85
2024/04/04 10:24:39;;;;;;;8.95;2.10;;;11.90;26.70;;;;;;5015068;28;20059;-83
2024/04/04 10:27:27;;;;;;;8.02;2.25;;;11.80;99.90;;;;;;5012816;28;20069;-84
2024/04/04 10:30:21;;;;;;;4.60;2.08;;;11.70;99.90;;;;;;5011373;28;20494;-80
2024/04/04 10:33:12;;;;;;;11.70;2.30;;;11.70;99.90;;;;;;5030081;28;20099;-83
2024/04/04 10:36:01;;;;;;;8.27;2.50;;;11.70;1.00;;;;;;5009269;28;20046;-85
2024/04/04 10:38:50;;;;;;;11.18;2.75;;;11.60;1.00;;;;;;5025020;28;20061;-82
2024/04/04 10:41:38;;;;;;;8.27;2.42;;;11.60;40.70;;;;;;5012509;28;20048;-85
2024/04/04 10:44:25;;;;;;;9.93;3.03;;;11.60;99.90;;;;;;5019749;28;20124;-85
2024/04/04 10:47:13;;;;;;;9.50;2.42;;;11.70;99.90;;;;;;5006433;28;20143;-82
2024/04/04 10:50:01;;;;;;;11.68;3.03;;;11.60;99.90;;;;;;5017885;28;20090;-83
2024/04/04 10:52:47;;;;;;;10.98;3.00;;;11.70;1.00;;;;;;5016465;28;20045;-84
2024/04/04 10:55:34;;;;;;;9.85;2.75;;;11.70;1.00;;;;;;5018499;28;20514;-82
2024/04/04 10:58:22;;;;;;;11.77;2.58;;;11.80;95.70;;;;;;5017374;28;20049;-85
2024/04/04 11:01:11;;;;;;;10.35;2.38;;;12.10;99.90;;;;;;5018474;28;20115;-84
2024/04/04 11:03:57;;;;;;;10.20;2.25;;;12.40;99.90;;;;;;5003210;28;20631;-84
2024/04/04 11:06:47;;;;;;;8.45;2.60;;;12.80;99.90;;;;;;5003480;28;20053;-83
2024/04/04 11:09:36;;;;;;;10.00;2.15;;;12.70;25.20;;;;;;5023126;28;20425;-82
2024/04/04 11:12:25;;;;;;;6.38;2.20;;;13.00;50.60;;;;;;5013538;28;20125;-82
2024/04/04 11:15:15;;;;;;;7.40;2.25;;;13.00;1.00;;;;;;5003289;28;20446;-82
2024/04/04 11:18:05;;;;;;;8.10;2.13;;;12.90;99.90;;;;;;5015252;28;20045;-83
2024/04/04 11:20:55;;;;;;;8.13;2.40;;;12.80;67.40;;;;;;5024080;28;20049;-85
2024/04/04 11:23:42;;;;;;;23.38;4.00;;;12.80;40.80;;;;;;5016875;28;20051;-84
2024/04/04 11:26:30;;;;;;;10.88;3.85;;;12.70;1.00;;;;;;5016292;28;20521;-86
2024/04/04 11:29:16;;;;;;;11.45;3.35;;;12.50;99.90;;;;;;5015149;28;20048;-84
2024/04/04 11:32:06;;;;;;;21.58;10.25;;;12.40;99.90;;;;;;5017127;28;20036;-82
2024/04/04 11:34:52;;;;;;;8.90;2.78;;;12.30;99.90;;;;;;5014878;28;20554;-84
2024/04/04 11:37:42;;;;;;;17.50;4.25;;;12.20;99.90;;;;;;5014609;28;20047;-85
2024/04/04 11:40:32;;;;;;;22.95;6.03;;;12.10;1.00;;;;;;5015759;28;20063;-83
2024/04/04 11:43:22;;;;;;;14.77;4.28;;;12.20;72.10;;;;;;5002149;28;20046;-82
2024/04/04 11:46:15;;;;;;;13.40;2.90;;;12.10;8.30;;;;;;5017780;28;20048;-84
2024/04/04 11:49:05;;;;;;;12.27;3.63;;;12.00;1.00;;;;;;5013088;28;20050;-82
2024/04/04 11:51:58;;;;;;;11.23;3.97;;;12.00;1.00;;;;;;5003865;28;20060;-83
2024/04/04 11:54:48;;;;;;;10.43;3.13;;;11.90;1.00;;;;;;5004120;28;20041;-82
2024/04/04 11:57:37;;;;;;;;;;;11.90;1.00;;;;;;5027176;28;20538;-87
2024/04/04 12:00:25;;;;;;;10.77;2.92;;;12.00;1.00;;;;;;5011360;28;19932;-83
2024/04/04 12:03:12;;;;;;;8.18;2.53;;;12.10;1.00;;;;;;5016002;28;20548;-81
2024/04/04 12:06:02;;;;;;;7.90;2.38;;;12.30;99.90;;;;;;5018303;28;20453;-84
2024/04/04 12:08:52;;;;;;;12.40;2.30;;;12.40;99.90;;;;;;5013942;28;20046;-84
2024/04/04 12:11:40;;;;;;;6.68;1.88;;;12.50;99.90;;;;;;5016334;28;20059;-82
2024/04/04 12:14:28;;;;;;;6.00;1.85;;;12.60;11.80;;;;;;5002278;28;20041;-83
2024/04/04 12:17:19;;;;;;;7.40;1.88;;;12.50;1.00;;;;;;5014089;28;20502;-82
2024/04/04 12:20:09;;;;;;;6.53;1.95;;;12.50;99.90;;;;;;5003611;28;20065;-85
2024/04/04 12:22:56;;;;;;;5.78;1.80;;;12.50;99.90;;;;;;5007822;28;20094;-82
2024/04/04 12:25:46;;;;;;;5.47;1.92;;;12.50;99.90;;;;;;5014244;28;20042;-81
2024/04/04 12:28:33;;;;;;;7.43;1.90;;;12.40;99.30;;;;;;5015178;28;20749;-83
2024/04/04 12:31:20;;;;;;;9.30;1.67;;;12.30;8.00;;;;;;5015695;28;20151;-83
2024/04/04 12:34:07;;;;;;;3.90;1.33;;;12.30;1.90;;;;;;5003395;28;20041;-82
2024/04/04 12:36:55;;;;;;;6.30;1.40;;;12.20;1.00;;;;;;5015424;28;20076;-84
2024/04/04 12:39:43;;;;;;;12.88;6.47;;;12.20;30.60;;;;;;5025268;28;20047;-82
2024/04/04 12:42:33;;;;;;;3.95;1.20;;;12.20;1.00;;;;;;5016914;28;20540;-80
2024/04/04 12:45:21;;;;;;;7.80;1.70;;;12.20;1.00;;;;;;5011822;28;20091;-82
2024/04/04 12:48:08;;;;;;;4.18;1.35;;;12.30;1.00;;;;;;5019580;28;20050;-83
2024/04/04 12:50:55;;;;;;;3.90;1.50;;;12.30;1.00;;;;;;5018265;28;20053;-82
2024/04/04 12:53:43;;;;;;;8.05;1.48;;;12.70;1.00;;;;;;4988741;28;20048;-82
2024/04/04 12:56:30;;;;;;;5.93;1.80;;;12.90;1.00;;;;;;5015390;28;20041;-82
2024/04/04 12:59:20;;;;;;;2.13;1.00;;;12.70;1.00;;;;;;5014810;28;20084;-83
2024/04/04 13:02:07;;;;;;;4.00;1.17;;;12.90;99.90;;;;;;5015165;28;20079;-84
2024/04/04 13:05:06;;;;;;;4.03;1.15;;;13.00;99.90;;;;;;5019171;28;20055;-84
2024/04/04 13:07:53;;;;;;;1.48;0.90;;;13.20;99.90;;;;;;5019723;28;20102;-80
2024/04/04 13:10:46;;;;;;;4.03;1.17;;;13.60;99.90;;;;;;5020934;28;20071;-82
2024/04/04 13:13:36;;;;;;;1.92;0.88;;;14.30;99.90;;;;;;5028691;28;20037;-80
2024/04/04 13:16:23;;;;;;;3.63;1.23;;;14.60;1.00;;;;;;5028683;28;20033;-80
2024/04/04 13:19:10;;;;;;;3.08;1.50;;;14.90;1.00;;;;;;5023701;28;20506;-81
2024/04/04 13:21:59;;;;;;;2.85;0.90;;;15.10;1.00;;;;;;5014947;28;20063;-83
2024/04/04 13:24:45;;;;;;;4.38;1.00;;;15.20;1.00;;;;;;5019615;28;20049;-83
2024/04/04 13:27:34;;;;;;;3.58;1.10;;;14.50;1.00;;;;;;5024003;28;20610;-82
2024/04/04 13:30:21;;;;;;;5.13;1.40;;;14.10;99.90;;;;;;5002451;28;20125;-82
2024/04/04 13:33:08;;;;;;;4.55;1.10;;;13.70;1.00;;;;;;5003033;28;20109;-80
2024/04/04 13:35:56;;;;;;;5.20;1.33;;;13.90;1.00;;;;;;4992503;28;20049;-82
2024/04/04 13:38:44;;;;;;;4.18;1.25;;;13.90;1.00;;;;;;5012696;28;20053;-80
2024/04/04 13:41:30;;;;;;;2.67;0.93;;;14.50;1.00;;;;;;5001428;28;20495;-82
2024/04/04 13:44:19;;;;;;;3.85;1.20;;;13.80;99.90;;;;;;5013859;28;20046;-82
2024/04/04 13:47:07;;;;;;;2.92;1.30;;;13.60;1.00;;;;;;4999819;28;20051;-83
2024/04/04 13:49:57;;;;;;;4.63;1.13;;;13.60;1.00;;;;;;5016127;28;20041;-83
2024/04/04 13:52:43;;;;;;;4.65;1.30;;;13.50;1.00;;;;;;5013796;28;20049;-81
2024/04/04 13:55:30;;;;;;;2.85;1.30;;;13.90;1.00;;;;;;5017576;28;20045;-83
2024/04/04 13:58:16;;;;;;;2.88;1.20;;;14.50;1.00;;;;;;5018005;28;20042;-83
2024/04/04 14:01:03;;;;;;;4.45;1.10;;;14.50;1.00;;;;;;5017143;28;20042;-84
2024/04/04 14:03:51;;;;;;;4.20;1.20;;;14.40;99.90;;;;;;5027230;28;20045;-84
2024/04/04 14:06:41;;;;;;;7.30;3.13;;;13.90;99.90;;;;;;5013287;28;20838;-83
2024/04/04 14:09:27;;;;;;;2.47;1.10;;;13.50;99.90;;;;;;5021711;28;20105;-84
2024/04/04 14:12:16;;;;;;;4.50;1.25;;;13.20;99.90;;;;;;5013953;28;20399;-82
2024/04/04 14:15:04;;;;;;;2.42;1.10;;;13.00;1.00;;;;;;5004264;28;20071;-82
2024/04/04 14:17:56;;;;;;;2.83;1.20;;;12.90;1.00;;;;;;5018519;28;20041;-82
2024/04/04 14:20:43;;;;;;;2.72;1.00;;;12.60;1.00;;;;;;5026279;28;20080;-82
2024/04/04 14:23:29;;;;;;;2.13;1.10;;;12.90;1.00;;;;;;5006516;28;20056;-85
2024/04/04 14:26:17;;;;;;;4.35;1.05;;;13.30;1.00;;;;;;5019474;28;20038;-83
2024/04/04 14:29:04;;;;;;;6.93;1.50;;;13.70;1.00;;;;;;5018212;28;20051;-82
2024/04/04 14:31:52;;;;;;;2.83;1.25;;;13.60;1.00;;;;;;5017837;28;20041;-84
2024/04/04 14:34:41;;;;;;;4.07;0.95;;;13.60;1.00;;;;;;5007039;28;20037;-83
2024/04/04 14:37:29;;;;;;;3.55;1.30;;;13.80;1.00;;;;;;5018272;28;20045;-82
2024/04/04 14:40:16;;;;;;;3.40;1.00;;;14.30;1.00;;;;;;5016750;28;20048;-82
2024/04/04 14:43:03;;;;;;;4.20;1.33;;;14.00;1.00;;;;;;4998612;28;20038;-82